createdAt,value
2023-01-30T00:04:09.864Z,95.94
2023-01-30T00:09:16.989Z,96.53
2023-01-30T00:14:24.556Z,95.97
2023-01-30T00:19:29.604Z,95.34
2023-01-30T00:24:34.721Z,95.59
2023-01-30T00:29:57.608Z,95.34
2023-01-30T00:35:10.951Z,95.20
2023-01-30T00:40:16.663Z,94.63
2023-01-30T00:45:36.830Z,94.57
2023-01-30T00:50:48.232Z,94.02
2023-01-30T00:55:54.203Z,94.09
2023-01-30T01:01:01.814Z,94.78
2023-01-30T01:06:07.223Z,95.60
2023-01-30T01:11:24.638Z,95.72
2023-01-30T01:16:33.946Z,96.43
2023-01-30T01:21:39.048Z,95.91
2023-01-30T01:26:44.989Z,97.67
2023-01-30T01:31:52.731Z,97.35
2023-01-30T01:37:00.547Z,97.69
2023-01-30T01:42:05.509Z,98.40
2023-01-30T01:47:13.190Z,99.02
2023-01-30T01:52:20.354Z,100.00
2023-01-30T01:57:28.401Z,100.00
2023-01-30T02:02:37.641Z,100.00
2023-01-30T02:07:48.334Z,100.00
2023-01-30T02:12:54.487Z,100.00
2023-01-30T02:18:02.684Z,100.00
2023-01-30T02:23:48.613Z,100.00
2023-01-30T02:29:24.390Z,100.00
2023-01-30T02:34:47.024Z,100.00
2023-01-30T02:40:06.943Z,100.00
2023-01-30T02:45:19.947Z,100.00
2023-01-30T02:50:31.873Z,100.00
2023-01-30T02:55:37.219Z,100.00
2023-01-30T03:01:22.317Z,100.00
2023-01-30T03:06:46.518Z,100.00
2023-01-30T03:11:59.495Z,100.00
2023-01-30T03:17:07.698Z,100.00
2023-01-30T03:22:15.461Z,100.00
2023-01-30T03:27:22.195Z,100.00
2023-01-30T03:32:27.561Z,100.00
2023-01-30T03:37:35.692Z,100.00
2023-01-30T03:42:43.200Z,100.00
2023-01-30T03:47:48.433Z,100.00
2023-01-30T03:52:57.404Z,100.00
2023-01-30T03:58:02.443Z,100.00
2023-01-30T04:03:10.492Z,100.00
2023-01-30T04:08:18.883Z,100.00
2023-01-30T04:13:24.712Z,100.00
2023-01-30T04:18:30.275Z,100.00
2023-01-30T04:23:43.178Z,100.00
2023-01-30T04:28:48.463Z,100.00
2023-01-30T04:33:54.058Z,100.00
2023-01-30T04:39:02.512Z,100.00
2023-01-30T04:44:09.427Z,100.00
2023-01-30T04:49:46.723Z,100.00
2023-01-30T04:54:56.169Z,100.00
2023-01-30T05:00:01.342Z,100.00
2023-01-30T05:05:06.729Z,100.00
2023-01-30T05:10:15.273Z,100.00
2023-01-30T05:15:21.248Z,100.00
2023-01-30T05:20:29.009Z,100.00
2023-01-30T05:25:36.546Z,100.00
2023-01-30T05:30:41.493Z,100.00
2023-01-30T05:35:49.858Z,100.00
2023-01-30T05:41:04.589Z,100.00
2023-01-30T05:46:10.233Z,100.00
2023-01-30T05:51:20.745Z,100.00
2023-01-30T05:56:28.749Z,100.00
2023-01-30T06:01:34.532Z,100.00
2023-01-30T06:06:40.064Z,100.00
2023-01-30T06:11:48.077Z,100.00
2023-01-30T06:17:08.815Z,100.00
2023-01-30T06:22:13.897Z,100.00
2023-01-30T06:27:24.343Z,100.00
2023-01-30T06:32:32.819Z,100.00
2023-01-30T06:37:45.328Z,100.00
2023-01-30T06:42:54.282Z,100.00
2023-01-30T06:47:59.800Z,100.00
2023-01-30T06:53:06.819Z,100.00
2023-01-30T06:58:17.196Z,100.00
2023-01-30T07:03:22.216Z,100.00
2023-01-30T07:08:27.278Z,100.00
2023-01-30T07:13:37.034Z,100.00
2023-01-30T07:18:43.923Z,100.00
2023-01-30T07:23:50.443Z,100.00
2023-01-30T07:28:58.382Z,100.00
2023-01-30T07:34:04.527Z,100.00
2023-01-30T07:39:09.680Z,100.00
2023-01-30T07:44:17.835Z,100.00
2023-01-30T07:49:22.873Z,100.00
2023-01-30T07:54:27.867Z,100.00
2023-01-30T07:59:37.991Z,100.00
2023-01-30T08:04:43.035Z,100.00
2023-01-30T08:09:47.972Z,100.00
2023-01-30T08:14:57.000Z,100.00
2023-01-30T08:20:04.772Z,100.00
2023-01-30T08:25:11.097Z,100.00
2023-01-30T08:30:20.220Z,100.00
2023-01-30T08:35:25.986Z,100.00
2023-01-30T08:40:31.081Z,100.00
2023-01-30T08:45:48.243Z,100.00
2023-01-30T08:50:55.314Z,100.00
2023-01-30T08:56:00.484Z,100.00
2023-01-30T09:01:11.121Z,100.00
2023-01-30T09:06:16.413Z,100.00
2023-01-30T09:11:21.836Z,100.00
2023-01-30T09:16:31.914Z,100.00
2023-01-30T09:21:39.012Z,100.00
2023-01-30T09:26:49.065Z,100.00
2023-01-30T09:31:57.141Z,100.00
2023-01-30T09:37:05.488Z,100.00
2023-01-30T09:42:28.037Z,100.00
2023-01-30T09:47:48.952Z,100.00
2023-01-30T09:52:59.283Z,100.00
2023-01-30T09:58:06.520Z,100.00
2023-01-30T10:03:18.677Z,100.00
2023-01-30T10:08:46.048Z,100.00
2023-01-30T10:14:06.167Z,100.00
2023-01-30T10:19:47.265Z,100.00
2023-01-30T10:25:03.906Z,100.00
2023-01-30T10:30:17.631Z,100.00
2023-01-30T10:35:28.471Z,100.00
2023-01-30T10:40:42.535Z,100.00
2023-01-30T10:45:55.402Z,100.00
2023-01-30T10:51:21.888Z,100.00
2023-01-30T10:56:37.325Z,100.00
2023-01-30T11:01:47.319Z,100.00
2023-01-30T11:07:01.597Z,100.00
2023-01-30T11:12:09.028Z,100.00
2023-01-30T11:17:20.107Z,100.00
2023-01-30T11:22:29.314Z,100.00
2023-01-30T11:27:36.038Z,100.00
2023-01-30T11:33:02.357Z,100.00
2023-01-30T11:38:25.758Z,100.00
2023-01-30T11:43:32.074Z,100.00
2023-01-30T11:49:02.630Z,100.00
2023-01-30T11:54:17.805Z,100.00
2023-01-30T11:59:31.413Z,100.00
2023-01-30T12:04:39.616Z,100.00
2023-01-30T12:09:52.625Z,100.00
2023-01-30T12:15:08.315Z,100.00
2023-01-30T12:20:24.379Z,100.00
2023-01-30T12:25:40.363Z,100.00
2023-01-30T12:30:55.259Z,100.00
2023-01-30T12:36:12.206Z,100.00
2023-01-30T12:41:34.999Z,100.00
2023-01-30T12:52:54.307Z,100.00
2023-01-30T12:58:06.200Z,100.00
2023-01-30T13:03:30.247Z,100.00
2023-01-30T13:09:13.798Z,100.00
2023-01-30T13:14:30.822Z,100.00
2023-01-30T13:19:43.827Z,100.00
2023-01-30T13:25:03.974Z,100.00
2023-01-30T13:30:25.545Z,100.00
2023-01-30T13:35:36.411Z,100.00
2023-01-30T13:40:46.517Z,100.00
2023-01-30T13:46:02.047Z,100.00
2023-01-30T13:51:30.818Z,100.00
2023-01-30T13:56:43.878Z,100.00
2023-01-30T14:02:22.509Z,100.00
2023-01-30T14:07:31.449Z,100.00
2023-01-30T14:12:41.638Z,100.00
2023-01-30T14:18:10.983Z,100.00
2023-01-30T14:23:30.645Z,100.00
2023-01-30T14:28:50.923Z,100.00
2023-01-30T14:34:00.046Z,100.00
2023-01-30T14:39:35.116Z,100.00
2023-01-30T14:45:01.203Z,100.00
2023-01-30T14:50:23.621Z,100.00
2023-01-30T14:55:31.796Z,100.00
2023-01-30T15:00:41.822Z,100.00
2023-01-30T15:05:51.859Z,100.00
2023-01-30T15:11:34.753Z,100.00
2023-01-30T15:17:02.157Z,100.00
2023-01-30T15:22:19.561Z,100.00
2023-01-30T15:27:32.919Z,100.00
2023-01-30T15:32:42.885Z,100.00
2023-01-30T15:37:56.392Z,100.00
2023-01-30T15:43:18.517Z,100.00
2023-01-30T15:48:44.574Z,100.00
2023-01-30T15:53:55.334Z,100.00
2023-01-30T15:59:05.698Z,100.00
2023-01-30T16:04:29.704Z,100.00
2023-01-30T16:09:37.408Z,100.00
2023-01-30T16:14:44.497Z,100.00
2023-01-30T16:19:49.636Z,100.00
2023-01-30T16:24:58.386Z,100.00
2023-01-30T16:30:08.803Z,100.00
2023-01-30T16:35:30.927Z,100.00
2023-01-30T16:40:49.339Z,100.00
2023-01-30T16:46:24.786Z,100.00
2023-01-30T16:51:29.795Z,100.00
2023-01-30T16:56:41.343Z,100.00
2023-01-30T17:01:49.430Z,100.00
2023-01-30T17:06:59.402Z,100.00
2023-01-30T17:12:39.948Z,100.00
2023-01-30T17:17:45.417Z,100.00
2023-01-30T17:22:57.905Z,100.00
2023-01-30T17:28:07.703Z,100.00
2023-01-30T17:33:13.073Z,100.00
2023-01-30T17:38:18.100Z,100.00
2023-01-30T17:43:25.946Z,100.00
2023-01-30T17:48:30.936Z,100.00
2023-01-30T17:53:38.510Z,100.00
2023-01-30T17:58:46.203Z,100.00
2023-01-30T18:03:51.136Z,100.00
2023-01-30T18:08:57.773Z,100.00
2023-01-30T18:14:07.198Z,100.00
2023-01-30T18:19:16.302Z,100.00
2023-01-30T18:24:21.390Z,100.00
2023-01-30T18:29:29.052Z,100.00
2023-01-30T18:34:36.317Z,100.00
2023-01-30T18:39:41.614Z,100.00
2023-01-30T18:44:50.471Z,100.00
2023-01-30T18:49:55.844Z,100.00
2023-01-30T18:55:04.018Z,100.00
2023-01-30T19:00:14.863Z,100.00
2023-01-30T19:05:23.059Z,100.00
2023-01-30T19:10:28.572Z,100.00
2023-01-30T19:15:40.263Z,100.00
2023-01-30T19:20:48.399Z,100.00
2023-01-30T19:25:57.770Z,100.00
2023-01-30T19:31:09.162Z,100.00
2023-01-30T19:36:16.344Z,100.00
2023-01-30T19:41:25.034Z,100.00
2023-01-30T19:46:34.737Z,100.00
2023-01-30T19:51:41.988Z,100.00
2023-01-30T19:56:49.479Z,100.00
2023-01-30T20:01:57.730Z,100.00
2023-01-30T20:07:06.769Z,100.00
2023-01-30T20:12:12.328Z,100.00
2023-01-30T20:17:24.270Z,100.00
2023-01-30T20:22:32.210Z,100.00
2023-01-30T20:27:38.051Z,100.00
2023-01-30T20:32:46.078Z,100.00
2023-01-30T20:37:51.286Z,100.00
2023-01-30T20:42:56.500Z,100.00
2023-01-30T20:48:06.751Z,100.00
2023-01-30T20:53:12.084Z,100.00
2023-01-30T20:58:19.123Z,100.00
2023-01-30T21:03:29.024Z,100.00
2023-01-30T21:08:34.094Z,100.00
2023-01-30T21:13:40.014Z,100.00
2023-01-30T21:18:52.893Z,100.00
2023-01-30T21:23:59.556Z,100.00
2023-01-30T21:29:06.244Z,100.00
2023-01-30T21:34:15.271Z,100.00
2023-01-30T21:39:32.775Z,100.00
2023-01-30T21:44:41.042Z,100.00
2023-01-30T21:49:48.709Z,100.00
2023-01-30T21:54:55.802Z,100.00
2023-01-30T22:00:00.875Z,100.00
2023-01-30T22:05:09.540Z,100.00
2023-01-30T22:10:14.663Z,100.00
2023-01-30T22:15:20.953Z,100.00
2023-01-30T22:20:28.813Z,100.00
2023-01-30T22:25:33.742Z,100.00
2023-01-30T22:30:38.902Z,100.00
2023-01-30T22:35:51.725Z,100.00
2023-01-30T22:41:07.269Z,100.00
2023-01-30T22:46:12.971Z,100.00
2023-01-30T22:51:22.591Z,100.00
2023-01-30T22:56:29.360Z,100.00
2023-01-30T23:01:36.021Z,100.00
2023-01-30T23:06:45.741Z,100.00
2023-01-30T23:12:12.723Z,100.00
2023-01-30T23:17:30.161Z,100.00
2023-01-30T23:22:37.853Z,100.00
2023-01-30T23:27:43.496Z,100.00
2023-01-30T23:32:48.619Z,100.00
2023-01-30T23:38:10.797Z,100.00
2023-01-30T23:43:17.960Z,100.00
2023-01-30T23:48:22.917Z,100.00
2023-01-30T23:53:30.730Z,100.00
2023-01-30T23:58:36.488Z,100.00
